sensor_id;sensor_type;location;lat;lon;timestamp;P1;durP1;ratioP1;P2;durP2;ratioP2
23555;SDS011;11956;53.184;8.578;2023-02-04T00:01:18;17.02;;;2.45;;
23555;SDS011;11956;53.184;8.578;2023-02-04T00:04:20;19.85;;;2.67;;
23555;SDS011;11956;53.184;8.578;2023-02-04T00:07:21;15.80;;;2.58;;
23555;SDS011;11956;53.184;8.578;2023-02-04T00:10:22;12.48;;;1.95;;
23555;SDS011;11956;53.184;8.578;2023-02-04T00:13:22;13.13;;;2.03;;
23555;SDS011;11956;53.184;8.578;2023-02-04T00:16:23;17.92;;;1.92;;
23555;SDS011;11956;53.184;8.578;2023-02-04T00:19:24;11.80;;;1.88;;
23555;SDS011;11956;53.184;8.578;2023-02-04T00:22:25;17.90;;;2.55;;
23555;SDS011;11956;53.184;8.578;2023-02-04T00:25:27;7.90;;;1.30;;
23555;SDS011;11956;53.184;8.578;2023-02-04T00:28:28;7.70;;;1.52;;
23555;SDS011;11956;53.184;8.578;2023-02-04T00:31:29;11.35;;;1.63;;
23555;SDS011;11956;53.184;8.578;2023-02-04T00:34:30;11.95;;;1.20;;
23555;SDS011;11956;53.184;8.578;2023-02-04T00:37:31;13.00;;;1.80;;
23555;SDS011;11956;53.184;8.578;2023-02-04T00:40:32;6.78;;;1.10;;
23555;SDS011;11956;53.184;8.578;2023-02-04T00:43:33;7.95;;;1.55;;
23555;SDS011;11956;53.184;8.578;2023-02-04T00:46:34;7.25;;;1.30;;
23555;SDS011;11956;53.184;8.578;2023-02-04T00:49:35;7.65;;;1.42;;
23555;SDS011;11956;53.184;8.578;2023-02-04T00:52:35;7.40;;;1.17;;
23555;SDS011;11956;53.184;8.578;2023-02-04T00:55:36;5.60;;;1.10;;
23555;SDS011;11956;53.184;8.578;2023-02-04T00:58:38;5.90;;;1.25;;
23555;SDS011;11956;53.184;8.578;2023-02-04T01:01:39;7.53;;;1.05;;
23555;SDS011;11956;53.184;8.578;2023-02-04T01:04:40;7.22;;;1.30;;
23555;SDS011;11956;53.184;8.578;2023-02-04T01:07:41;7.57;;;1.15;;
23555;SDS011;11956;53.184;8.578;2023-02-04T01:10:42;7.55;;;1.38;;
23555;SDS011;11956;53.184;8.578;2023-02-04T01:13:43;10.45;;;1.70;;
23555;SDS011;11956;53.184;8.578;2023-02-04T01:16:45;9.55;;;1.63;;
23555;SDS011;11956;53.184;8.578;2023-02-04T01:19:46;5.10;;;1.23;;
23555;SDS011;11956;53.184;8.578;2023-02-04T01:22:47;9.70;;;1.42;;
23555;SDS011;11956;53.184;8.578;2023-02-04T01:25:48;9.25;;;1.58;;
23555;SDS011;11956;53.184;8.578;2023-02-04T01:28:49;10.88;;;1.27;;
23555;SDS011;11956;53.184;8.578;2023-02-04T01:31:50;7.97;;;1.30;;
23555;SDS011;11956;53.184;8.578;2023-02-04T01:34:51;6.35;;;1.15;;
23555;SDS011;11956;53.184;8.578;2023-02-04T01:37:52;6.70;;;1.33;;
23555;SDS011;11956;53.184;8.578;2023-02-04T01:40:52;6.70;;;1.50;;
23555;SDS011;11956;53.184;8.578;2023-02-04T01:43:55;6.47;;;1.70;;
23555;SDS011;11956;53.184;8.578;2023-02-04T01:46:56;11.20;;;2.17;;
23555;SDS011;11956;53.184;8.578;2023-02-04T01:49:57;7.45;;;1.63;;
23555;SDS011;11956;53.184;8.578;2023-02-04T01:52:58;8.77;;;1.52;;
23555;SDS011;11956;53.184;8.578;2023-02-04T01:55:59;6.90;;;2.20;;
23555;SDS011;11956;53.184;8.578;2023-02-04T01:59:01;9.00;;;1.75;;
23555;SDS011;11956;53.184;8.578;2023-02-04T02:05:49;9.23;;;1.52;;
23555;SDS011;11956;53.184;8.578;2023-02-04T02:08:53;10.63;;;1.65;;
23555;SDS011;11956;53.184;8.578;2023-02-04T02:11:54;6.97;;;1.15;;
23555;SDS011;11956;53.184;8.578;2023-02-04T02:14:55;9.52;;;1.30;;
23555;SDS011;11956;53.184;8.578;2023-02-04T02:17:56;7.35;;;1.70;;
23555;SDS011;11956;53.184;8.578;2023-02-04T02:20:57;12.25;;;1.55;;
23555;SDS011;11956;53.184;8.578;2023-02-04T02:27:27;5.70;;;1.40;;
23555;SDS011;11956;53.184;8.578;2023-02-04T02:30:31;6.25;;;1.42;;
23555;SDS011;11956;53.184;8.578;2023-02-04T02:33:32;8.95;;;1.80;;
23555;SDS011;11956;53.184;8.578;2023-02-04T02:36:33;5.78;;;1.42;;
23555;SDS011;11956;53.184;8.578;2023-02-04T02:39:35;6.10;;;1.42;;
23555;SDS011;11956;53.184;8.578;2023-02-04T02:42:42;9.48;;;1.25;;
23555;SDS011;11956;53.184;8.578;2023-02-04T02:45:47;7.78;;;1.30;;
23555;SDS011;11956;53.184;8.578;2023-02-04T02:48:49;7.07;;;1.40;;
23555;SDS011;11956;53.184;8.578;2023-02-04T02:51:50;7.00;;;1.30;;
23555;SDS011;11956;53.184;8.578;2023-02-04T02:54:50;15.18;;;1.52;;
23555;SDS011;11956;53.184;8.578;2023-02-04T02:57:53;7.80;;;1.35;;
23555;SDS011;11956;53.184;8.578;2023-02-04T03:00:55;12.27;;;1.30;;
23555;SDS011;11956;53.184;8.578;2023-02-04T03:03:58;8.03;;;1.30;;
23555;SDS011;11956;53.184;8.578;2023-02-04T03:06:59;10.02;;;1.80;;
23555;SDS011;11956;53.184;8.578;2023-02-04T03:10:02;11.07;;;1.23;;
23555;SDS011;11956;53.184;8.578;2023-02-04T03:13:04;10.27;;;1.10;;
23555;SDS011;11956;53.184;8.578;2023-02-04T03:16:05;6.05;;;1.40;;
23555;SDS011;11956;53.184;8.578;2023-02-04T03:19:07;5.50;;;1.02;;
23555;SDS011;11956;53.184;8.578;2023-02-04T03:22:08;9.23;;;1.20;;
23555;SDS011;11956;53.184;8.578;2023-02-04T03:25:09;6.97;;;1.20;;
23555;SDS011;11956;53.184;8.578;2023-02-04T03:28:10;7.53;;;1.48;;
23555;SDS011;11956;53.184;8.578;2023-02-04T03:31:11;10.35;;;1.42;;
23555;SDS011;11956;53.184;8.578;2023-02-04T03:34:12;7.68;;;1.27;;
23555;SDS011;11956;53.184;8.578;2023-02-04T03:37:12;5.43;;;1.10;;
23555;SDS011;11956;53.184;8.578;2023-02-04T03:40:13;4.68;;;1.05;;
23555;SDS011;11956;53.184;8.578;2023-02-04T03:43:15;8.63;;;1.70;;
23555;SDS011;11956;53.184;8.578;2023-02-04T03:46:16;9.88;;;1.90;;
23555;SDS011;11956;53.184;8.578;2023-02-04T03:49:16;8.25;;;1.17;;
23555;SDS011;11956;53.184;8.578;2023-02-04T03:52:17;8.20;;;1.50;;
23555;SDS011;11956;53.184;8.578;2023-02-04T03:55:19;6.43;;;1.40;;
23555;SDS011;11956;53.184;8.578;2023-02-04T03:58:20;5.88;;;1.00;;
23555;SDS011;11956;53.184;8.578;2023-02-04T04:01:22;5.22;;;1.13;;
23555;SDS011;11956;53.184;8.578;2023-02-04T04:04:23;4.93;;;1.10;;
23555;SDS011;11956;53.184;8.578;2023-02-04T04:07:24;3.40;;;1.00;;
23555;SDS011;11956;53.184;8.578;2023-02-04T04:10:25;5.63;;;1.23;;
23555;SDS011;11956;53.184;8.578;2023-02-04T04:13:28;6.17;;;1.20;;
23555;SDS011;11956;53.184;8.578;2023-02-04T04:16:29;4.15;;;1.00;;
23555;SDS011;11956;53.184;8.578;2023-02-04T04:19:30;5.68;;;1.30;;
23555;SDS011;11956;53.184;8.578;2023-02-04T04:22:31;6.40;;;1.40;;
23555;SDS011;11956;53.184;8.578;2023-02-04T04:25:33;7.90;;;1.38;;
23555;SDS011;11956;53.184;8.578;2023-02-04T04:28:34;9.73;;;1.75;;
23555;SDS011;11956;53.184;8.578;2023-02-04T04:31:35;3.13;;;1.00;;
23555;SDS011;11956;53.184;8.578;2023-02-04T04:34:35;5.20;;;1.13;;
23555;SDS011;11956;53.184;8.578;2023-02-04T04:37:36;4.75;;;1.13;;
23555;SDS011;11956;53.184;8.578;2023-02-04T04:40:37;7.85;;;1.20;;
23555;SDS011;11956;53.184;8.578;2023-02-04T04:43:38;5.43;;;1.40;;
23555;SDS011;11956;53.184;8.578;2023-02-04T04:46:39;5.25;;;1.27;;
23555;SDS011;11956;53.184;8.578;2023-02-04T04:49:40;8.23;;;1.30;;
23555;SDS011;11956;53.184;8.578;2023-02-04T04:52:41;5.85;;;1.73;;
23555;SDS011;11956;53.184;8.578;2023-02-04T04:55:41;13.25;;;1.60;;
23555;SDS011;11956;53.184;8.578;2023-02-04T04:58:42;7.38;;;1.20;;
23555;SDS011;11956;53.184;8.578;2023-02-04T05:01:43;4.80;;;1.50;;
23555;SDS011;11956;53.184;8.578;2023-02-04T05:04:44;6.60;;;1.90;;
23555;SDS011;11956;53.184;8.578;2023-02-04T05:07:45;8.90;;;1.27;;
23555;SDS011;11956;53.184;8.578;2023-02-04T05:10:46;4.38;;;1.08;;
23555;SDS011;11956;53.184;8.578;2023-02-04T05:13:47;7.45;;;1.65;;
23555;SDS011;11956;53.184;8.578;2023-02-04T05:16:48;7.78;;;1.58;;
23555;SDS011;11956;53.184;8.578;2023-02-04T05:19:48;5.35;;;1.65;;
23555;SDS011;11956;53.184;8.578;2023-02-04T05:22:49;4.50;;;1.20;;
23555;SDS011;11956;53.184;8.578;2023-02-04T05:25:50;5.95;;;1.23;;
23555;SDS011;11956;53.184;8.578;2023-02-04T05:28:51;4.95;;;1.30;;
23555;SDS011;11956;53.184;8.578;2023-02-04T05:31:52;8.48;;;1.50;;
23555;SDS011;11956;53.184;8.578;2023-02-04T05:34:52;3.78;;;1.30;;
23555;SDS011;11956;53.184;8.578;2023-02-04T05:37:53;6.88;;;1.35;;
23555;SDS011;11956;53.184;8.578;2023-02-04T05:40:54;7.15;;;1.60;;
23555;SDS011;11956;53.184;8.578;2023-02-04T05:43:55;6.00;;;1.52;;
23555;SDS011;11956;53.184;8.578;2023-02-04T05:46:56;5.82;;;1.13;;
23555;SDS011;11956;53.184;8.578;2023-02-04T05:49:56;4.60;;;1.10;;
23555;SDS011;11956;53.184;8.578;2023-02-04T05:52:57;5.78;;;1.90;;
23555;SDS011;11956;53.184;8.578;2023-02-04T05:55:58;6.20;;;1.25;;
23555;SDS011;11956;53.184;8.578;2023-02-04T05:58:59;9.18;;;1.85;;
23555;SDS011;11956;53.184;8.578;2023-02-04T06:02:00;7.50;;;1.75;;
23555;SDS011;11956;53.184;8.578;2023-02-04T06:05:01;5.32;;;1.38;;
23555;SDS011;11956;53.184;8.578;2023-02-04T06:08:01;6.45;;;1.60;;
23555;SDS011;11956;53.184;8.578;2023-02-04T06:11:03;7.93;;;1.77;;
23555;SDS011;11956;53.184;8.578;2023-02-04T06:14:04;7.95;;;1.73;;
23555;SDS011;11956;53.184;8.578;2023-02-04T06:17:06;9.20;;;2.25;;
23555;SDS011;11956;53.184;8.578;2023-02-04T06:20:07;8.73;;;1.88;;
23555;SDS011;11956;53.184;8.578;2023-02-04T06:23:09;2.90;;;1.50;;
23555;SDS011;11956;53.184;8.578;2023-02-04T06:26:10;5.25;;;1.60;;
23555;SDS011;11956;53.184;8.578;2023-02-04T06:29:11;7.82;;;1.77;;
23555;SDS011;11956;53.184;8.578;2023-02-04T06:32:12;6.65;;;1.52;;
23555;SDS011;11956;53.184;8.578;2023-02-04T06:35:13;5.28;;;1.50;;
23555;SDS011;11956;53.184;8.578;2023-02-04T06:38:15;6.05;;;1.83;;
23555;SDS011;11956;53.184;8.578;2023-02-04T06:41:16;7.68;;;1.98;;
23555;SDS011;11956;53.184;8.578;2023-02-04T06:44:17;7.53;;;1.98;;
23555;SDS011;11956;53.184;8.578;2023-02-04T06:47:18;6.45;;;2.10;;
23555;SDS011;11956;53.184;8.578;2023-02-04T06:50:19;7.50;;;2.00;;
23555;SDS011;11956;53.184;8.578;2023-02-04T06:53:20;5.57;;;1.90;;
23555;SDS011;11956;53.184;8.578;2023-02-04T06:56:21;7.80;;;1.98;;
23555;SDS011;11956;53.184;8.578;2023-02-04T06:59:22;6.30;;;1.70;;
23555;SDS011;11956;53.184;8.578;2023-02-04T07:02:25;7.43;;;2.20;;
23555;SDS011;11956;53.184;8.578;2023-02-04T07:05:26;7.60;;;2.30;;
23555;SDS011;11956;53.184;8.578;2023-02-04T07:08:26;5.95;;;1.90;;
23555;SDS011;11956;53.184;8.578;2023-02-04T07:11:27;5.95;;;2.65;;
23555;SDS011;11956;53.184;8.578;2023-02-04T07:14:28;5.63;;;2.40;;
23555;SDS011;11956;53.184;8.578;2023-02-04T07:17:29;7.65;;;3.10;;
23555;SDS011;11956;53.184;8.578;2023-02-04T07:20:30;6.82;;;3.22;;
23555;SDS011;11956;53.184;8.578;2023-02-04T07:23:31;9.82;;;4.13;;
23555;SDS011;11956;53.184;8.578;2023-02-04T07:26:31;8.88;;;4.25;;
23555;SDS011;11956;53.184;8.578;2023-02-04T07:29:33;10.90;;;5.22;;
23555;SDS011;11956;53.184;8.578;2023-02-04T07:32:34;7.45;;;4.18;;
23555;SDS011;11956;53.184;8.578;2023-02-04T07:35:35;10.13;;;4.13;;
23555;SDS011;11956;53.184;8.578;2023-02-04T07:38:37;8.10;;;3.15;;
23555;SDS011;11956;53.184;8.578;2023-02-04T07:41:38;10.60;;;4.78;;
23555;SDS011;11956;53.184;8.578;2023-02-04T07:44:38;8.27;;;4.80;;
23555;SDS011;11956;53.184;8.578;2023-02-04T07:47:39;7.25;;;4.50;;
23555;SDS011;11956;53.184;8.578;2023-02-04T07:50:40;5.47;;;3.05;;
23555;SDS011;11956;53.184;8.578;2023-02-04T07:53:41;5.65;;;2.83;;
23555;SDS011;11956;53.184;8.578;2023-02-04T07:56:42;4.80;;;2.85;;
23555;SDS011;11956;53.184;8.578;2023-02-04T07:59:43;4.25;;;2.20;;
23555;SDS011;11956;53.184;8.578;2023-02-04T08:02:44;4.45;;;2.40;;
23555;SDS011;11956;53.184;8.578;2023-02-04T08:05:45;5.15;;;2.60;;
23555;SDS011;11956;53.184;8.578;2023-02-04T08:08:45;4.43;;;2.80;;
23555;SDS011;11956;53.184;8.578;2023-02-04T08:11:46;3.10;;;2.22;;
23555;SDS011;11956;53.184;8.578;2023-02-04T08:14:47;3.15;;;2.08;;
23555;SDS011;11956;53.184;8.578;2023-02-04T08:17:48;2.97;;;2.40;;
23555;SDS011;11956;53.184;8.578;2023-02-04T08:20:49;3.65;;;2.53;;
23555;SDS011;11956;53.184;8.578;2023-02-04T08:23:50;4.80;;;2.88;;
23555;SDS011;11956;53.184;8.578;2023-02-04T08:26:51;5.20;;;3.05;;
23555;SDS011;11956;53.184;8.578;2023-02-04T08:29:52;5.70;;;3.00;;
23555;SDS011;11956;53.184;8.578;2023-02-04T08:32:54;5.65;;;3.28;;
23555;SDS011;11956;53.184;8.578;2023-02-04T08:35:55;4.18;;;3.00;;
23555;SDS011;11956;53.184;8.578;2023-02-04T08:38:56;4.47;;;2.78;;
23555;SDS011;11956;53.184;8.578;2023-02-04T08:41:56;6.32;;;2.97;;
23555;SDS011;11956;53.184;8.578;2023-02-04T08:44:58;5.15;;;3.05;;
23555;SDS011;11956;53.184;8.578;2023-02-04T08:47:58;4.30;;;3.25;;
23555;SDS011;11956;53.184;8.578;2023-02-04T08:50:59;4.75;;;3.20;;
23555;SDS011;11956;53.184;8.578;2023-02-04T08:54:00;5.82;;;3.35;;
23555;SDS011;11956;53.184;8.578;2023-02-04T08:57:01;5.93;;;3.10;;
23555;SDS011;11956;53.184;8.578;2023-02-04T09:00:02;4.78;;;3.38;;
23555;SDS011;11956;53.184;8.578;2023-02-04T09:03:04;3.60;;;3.08;;
23555;SDS011;11956;53.184;8.578;2023-02-04T09:06:05;4.70;;;3.35;;
23555;SDS011;11956;53.184;8.578;2023-02-04T09:09:06;5.55;;;3.30;;
23555;SDS011;11956;53.184;8.578;2023-02-04T09:12:07;4.90;;;3.33;;
23555;SDS011;11956;53.184;8.578;2023-02-04T09:15:09;5.15;;;3.22;;
23555;SDS011;11956;53.184;8.578;2023-02-04T09:18:10;5.88;;;3.63;;
23555;SDS011;11956;53.184;8.578;2023-02-04T09:21:16;4.65;;;3.50;;
23555;SDS011;11956;53.184;8.578;2023-02-04T09:24:17;6.22;;;4.00;;
23555;SDS011;11956;53.184;8.578;2023-02-04T09:27:17;5.63;;;3.60;;
23555;SDS011;11956;53.184;8.578;2023-02-04T09:30:19;5.40;;;3.30;;
23555;SDS011;11956;53.184;8.578;2023-02-04T09:33:20;7.40;;;3.53;;
23555;SDS011;11956;53.184;8.578;2023-02-04T09:36:20;4.20;;;3.10;;
23555;SDS011;11956;53.184;8.578;2023-02-04T09:39:22;5.80;;;3.63;;
23555;SDS011;11956;53.184;8.578;2023-02-04T09:42:23;4.85;;;3.17;;
23555;SDS011;11956;53.184;8.578;2023-02-04T09:45:26;3.95;;;2.67;;
23555;SDS011;11956;53.184;8.578;2023-02-04T09:48:31;4.07;;;2.97;;
23555;SDS011;11956;53.184;8.578;2023-02-04T09:51:32;5.68;;;3.25;;
23555;SDS011;11956;53.184;8.578;2023-02-04T09:54:35;6.23;;;3.37;;
23555;SDS011;11956;53.184;8.578;2023-02-04T09:57:37;5.90;;;3.17;;
23555;SDS011;11956;53.184;8.578;2023-02-04T10:00:40;5.03;;;3.33;;
23555;SDS011;11956;53.184;8.578;2023-02-04T10:03:41;5.50;;;2.92;;
23555;SDS011;11956;53.184;8.578;2023-02-04T10:06:47;7.68;;;3.40;;
23555;SDS011;11956;53.184;8.578;2023-02-04T10:09:48;7.03;;;3.50;;
23555;SDS011;11956;53.184;8.578;2023-02-04T10:12:51;6.38;;;3.53;;
23555;SDS011;11956;53.184;8.578;2023-02-04T10:15:57;7.05;;;3.20;;
23555;SDS011;11956;53.184;8.578;2023-02-04T10:19:00;3.75;;;3.00;;
23555;SDS011;11956;53.184;8.578;2023-02-04T10:22:06;3.08;;;2.25;;
23555;SDS011;11956;53.184;8.578;2023-02-04T10:25:17;5.20;;;2.33;;
23555;SDS011;11956;53.184;8.578;2023-02-04T10:28:21;3.70;;;2.30;;
23555;SDS011;11956;53.184;8.578;2023-02-04T10:31:37;4.65;;;2.25;;
23555;SDS011;11956;53.184;8.578;2023-02-04T10:34:40;2.50;;;2.00;;
23555;SDS011;11956;53.184;8.578;2023-02-04T10:37:43;5.53;;;2.10;;
23555;SDS011;11956;53.184;8.578;2023-02-04T10:40:44;2.70;;;2.20;;
23555;SDS011;11956;53.184;8.578;2023-02-04T10:43:46;4.43;;;2.40;;
23555;SDS011;11956;53.184;8.578;2023-02-04T10:47:14;4.47;;;2.38;;
23555;SDS011;11956;53.184;8.578;2023-02-04T10:50:19;4.38;;;2.45;;
23555;SDS011;11956;53.184;8.578;2023-02-04T10:53:24;5.03;;;3.03;;
23555;SDS011;11956;53.184;8.578;2023-02-04T10:56:44;6.97;;;3.20;;
23555;SDS011;11956;53.184;8.578;2023-02-04T10:59:46;6.43;;;3.00;;
23555;SDS011;11956;53.184;8.578;2023-02-04T11:06:07;5.50;;;3.35;;
23555;SDS011;11956;53.184;8.578;2023-02-04T11:09:13;4.60;;;2.95;;
23555;SDS011;11956;53.184;8.578;2023-02-04T11:12:21;7.03;;;4.10;;
23555;SDS011;11956;53.184;8.578;2023-02-04T11:15:45;7.75;;;4.13;;
23555;SDS011;11956;53.184;8.578;2023-02-04T11:22:02;4.93;;;3.20;;
23555;SDS011;11956;53.184;8.578;2023-02-04T11:25:40;4.50;;;2.95;;
23555;SDS011;11956;53.184;8.578;2023-02-04T11:35:31;4.47;;;2.20;;
23555;SDS011;11956;53.184;8.578;2023-02-04T11:38:32;2.30;;;1.75;;
23555;SDS011;11956;53.184;8.578;2023-02-04T11:41:33;4.75;;;2.10;;
23555;SDS011;11956;53.184;8.578;2023-02-04T11:44:34;4.28;;;1.20;;
23555;SDS011;11956;53.184;8.578;2023-02-04T11:47:35;3.38;;;1.67;;
23555;SDS011;11956;53.184;8.578;2023-02-04T11:50:36;2.15;;;1.65;;
23555;SDS011;11956;53.184;8.578;2023-02-04T11:53:37;2.42;;;1.48;;
23555;SDS011;11956;53.184;8.578;2023-02-04T11:56:38;2.67;;;1.55;;
23555;SDS011;11956;53.184;8.578;2023-02-04T11:59:39;1.60;;;1.20;;
23555;SDS011;11956;53.184;8.578;2023-02-04T12:02:43;2.80;;;1.60;;
23555;SDS011;11956;53.184;8.578;2023-02-04T12:05:46;1.95;;;1.25;;
23555;SDS011;11956;53.184;8.578;2023-02-04T12:08:48;1.60;;;1.17;;
23555;SDS011;11956;53.184;8.578;2023-02-04T12:11:52;3.65;;;1.55;;
23555;SDS011;11956;53.184;8.578;2023-02-04T12:15:08;2.75;;;1.42;;
23555;SDS011;11956;53.184;8.578;2023-02-04T12:18:20;2.88;;;1.30;;
23555;SDS011;11956;53.184;8.578;2023-02-04T12:21:21;2.47;;;1.50;;
23555;SDS011;11956;53.184;8.578;2023-02-04T12:24:23;2.50;;;1.40;;
23555;SDS011;11956;53.184;8.578;2023-02-04T12:27:24;2.63;;;1.95;;
23555;SDS011;11956;53.184;8.578;2023-02-04T12:30:25;1.92;;;1.38;;
23555;SDS011;11956;53.184;8.578;2023-02-04T12:33:26;2.65;;;1.60;;
23555;SDS011;11956;53.184;8.578;2023-02-04T12:36:27;2.60;;;1.90;;
23555;SDS011;11956;53.184;8.578;2023-02-04T12:39:28;2.80;;;1.80;;
23555;SDS011;11956;53.184;8.578;2023-02-04T12:42:31;4.35;;;2.10;;
23555;SDS011;11956;53.184;8.578;2023-02-04T12:45:31;2.40;;;1.40;;
23555;SDS011;11956;53.184;8.578;2023-02-04T12:48:33;1.88;;;1.50;;
23555;SDS011;11956;53.184;8.578;2023-02-04T12:51:34;4.05;;;2.00;;
23555;SDS011;11956;53.184;8.578;2023-02-04T12:54:35;3.72;;;1.90;;
23555;SDS011;11956;53.184;8.578;2023-02-04T12:57:36;3.47;;;1.95;;
23555;SDS011;11956;53.184;8.578;2023-02-04T13:00:37;4.43;;;1.77;;
23555;SDS011;11956;53.184;8.578;2023-02-04T13:03:37;3.67;;;2.00;;
23555;SDS011;11956;53.184;8.578;2023-02-04T13:06:38;2.88;;;2.15;;
23555;SDS011;11956;53.184;8.578;2023-02-04T13:09:39;4.05;;;2.00;;
23555;SDS011;11956;53.184;8.578;2023-02-04T13:12:40;3.47;;;1.85;;
23555;SDS011;11956;53.184;8.578;2023-02-04T13:15:41;2.00;;;1.50;;
23555;SDS011;11956;53.184;8.578;2023-02-04T13:18:42;3.53;;;1.50;;
23555;SDS011;11956;53.184;8.578;2023-02-04T13:21:43;3.70;;;1.80;;
23555;SDS011;11956;53.184;8.578;2023-02-04T13:24:43;2.25;;;1.70;;
23555;SDS011;11956;53.184;8.578;2023-02-04T13:27:44;4.00;;;1.70;;
23555;SDS011;11956;53.184;8.578;2023-02-04T13:30:45;1.60;;;1.40;;
23555;SDS011;11956;53.184;8.578;2023-02-04T13:33:46;2.13;;;1.50;;
23555;SDS011;11956;53.184;8.578;2023-02-04T13:36:47;4.85;;;1.73;;
23555;SDS011;11956;53.184;8.578;2023-02-04T13:39:48;3.88;;;1.85;;
23555;SDS011;11956;53.184;8.578;2023-02-04T13:42:49;3.42;;;1.83;;
23555;SDS011;11956;53.184;8.578;2023-02-04T13:45:50;2.92;;;1.60;;
23555;SDS011;11956;53.184;8.578;2023-02-04T13:48:50;4.30;;;1.60;;
23555;SDS011;11956;53.184;8.578;2023-02-04T13:51:51;3.97;;;2.10;;
23555;SDS011;11956;53.184;8.578;2023-02-04T13:54:53;5.88;;;1.88;;
23555;SDS011;11956;53.184;8.578;2023-02-04T13:57:54;2.65;;;1.98;;
23555;SDS011;11956;53.184;8.578;2023-02-04T14:00:55;3.75;;;1.80;;
23555;SDS011;11956;53.184;8.578;2023-02-04T14:03:56;3.10;;;1.50;;
23555;SDS011;11956;53.184;8.578;2023-02-04T14:06:57;2.40;;;1.17;;
23555;SDS011;11956;53.184;8.578;2023-02-04T14:09:58;5.25;;;1.73;;
23555;SDS011;11956;53.184;8.578;2023-02-04T14:12:59;4.55;;;1.83;;
23555;SDS011;11956;53.184;8.578;2023-02-04T14:16:00;3.10;;;1.85;;
23555;SDS011;11956;53.184;8.578;2023-02-04T14:19:00;3.83;;;1.70;;
23555;SDS011;11956;53.184;8.578;2023-02-04T14:22:01;2.65;;;1.52;;
23555;SDS011;11956;53.184;8.578;2023-02-04T14:25:02;3.78;;;2.20;;
23555;SDS011;11956;53.184;8.578;2023-02-04T14:28:04;3.88;;;1.95;;
23555;SDS011;11956;53.184;8.578;2023-02-04T14:31:05;2.90;;;1.70;;
23555;SDS011;11956;53.184;8.578;2023-02-04T14:34:06;3.10;;;1.77;;
23555;SDS011;11956;53.184;8.578;2023-02-04T14:37:07;3.00;;;1.90;;
23555;SDS011;11956;53.184;8.578;2023-02-04T14:40:08;3.83;;;1.92;;
23555;SDS011;11956;53.184;8.578;2023-02-04T14:43:11;3.05;;;1.60;;
23555;SDS011;11956;53.184;8.578;2023-02-04T14:46:12;3.65;;;2.20;;
23555;SDS011;11956;53.184;8.578;2023-02-04T14:49:14;5.28;;;2.10;;
23555;SDS011;11956;53.184;8.578;2023-02-04T14:52:15;3.78;;;1.95;;
23555;SDS011;11956;53.184;8.578;2023-02-04T14:55:17;2.97;;;1.60;;
23555;SDS011;11956;53.184;8.578;2023-02-04T14:58:17;5.25;;;3.10;;
23555;SDS011;11956;53.184;8.578;2023-02-04T15:01:18;16.40;;;10.45;;
23555;SDS011;11956;53.184;8.578;2023-02-04T15:04:19;10.18;;;5.93;;
23555;SDS011;11956;53.184;8.578;2023-02-04T15:07:20;6.25;;;3.50;;
23555;SDS011;11956;53.184;8.578;2023-02-04T15:10:21;2.60;;;1.67;;
23555;SDS011;11956;53.184;8.578;2023-02-04T15:13:23;3.95;;;2.33;;
23555;SDS011;11956;53.184;8.578;2023-02-04T15:16:24;3.33;;;2.15;;
23555;SDS011;11956;53.184;8.578;2023-02-04T15:19:25;3.20;;;2.00;;
23555;SDS011;11956;53.184;8.578;2023-02-04T15:22:26;9.10;;;3.28;;
23555;SDS011;11956;53.184;8.578;2023-02-04T15:25:27;4.75;;;2.70;;
23555;SDS011;11956;53.184;8.578;2023-02-04T15:28:28;2.55;;;1.83;;
23555;SDS011;11956;53.184;8.578;2023-02-04T15:31:30;5.57;;;2.35;;
23555;SDS011;11956;53.184;8.578;2023-02-04T15:34:31;4.15;;;1.95;;
23555;SDS011;11956;53.184;8.578;2023-02-04T15:37:32;3.83;;;2.05;;
23555;SDS011;11956;53.184;8.578;2023-02-04T15:40:33;4.70;;;2.28;;
23555;SDS011;11956;53.184;8.578;2023-02-04T15:43:34;2.92;;;2.00;;
23555;SDS011;11956;53.184;8.578;2023-02-04T15:46:34;4.07;;;2.20;;
23555;SDS011;11956;53.184;8.578;2023-02-04T15:49:35;3.75;;;2.03;;
23555;SDS011;11956;53.184;8.578;2023-02-04T15:52:36;3.78;;;2.15;;
23555;SDS011;11956;53.184;8.578;2023-02-04T15:55:37;2.88;;;2.25;;
23555;SDS011;11956;53.184;8.578;2023-02-04T15:58:39;4.57;;;2.97;;
23555;SDS011;11956;53.184;8.578;2023-02-04T16:01:40;5.18;;;2.92;;
23555;SDS011;11956;53.184;8.578;2023-02-04T16:04:41;4.10;;;2.60;;
23555;SDS011;11956;53.184;8.578;2023-02-04T16:07:44;6.23;;;2.87;;
23555;SDS011;11956;53.184;8.578;2023-02-04T16:10:45;5.38;;;2.83;;
23555;SDS011;11956;53.184;8.578;2023-02-04T16:13:46;4.80;;;2.70;;
23555;SDS011;11956;53.184;8.578;2023-02-04T16:16:46;3.85;;;2.33;;
23555;SDS011;11956;53.184;8.578;2023-02-04T16:19:48;3.63;;;2.00;;
23555;SDS011;11956;53.184;8.578;2023-02-04T16:22:49;5.82;;;2.80;;
23555;SDS011;11956;53.184;8.578;2023-02-04T16:25:50;4.88;;;2.38;;
23555;SDS011;11956;53.184;8.578;2023-02-04T16:28:51;6.30;;;2.78;;
23555;SDS011;11956;53.184;8.578;2023-02-04T16:31:53;6.75;;;3.00;;
23555;SDS011;11956;53.184;8.578;2023-02-04T16:34:56;5.87;;;2.53;;
23555;SDS011;11956;53.184;8.578;2023-02-04T16:37:59;4.95;;;2.78;;
23555;SDS011;11956;53.184;8.578;2023-02-04T16:41:00;4.47;;;2.45;;
23555;SDS011;11956;53.184;8.578;2023-02-04T16:44:01;5.03;;;2.38;;
23555;SDS011;11956;53.184;8.578;2023-02-04T16:47:02;3.97;;;2.40;;
23555;SDS011;11956;53.184;8.578;2023-02-04T16:50:04;4.00;;;2.63;;
23555;SDS011;11956;53.184;8.578;2023-02-04T16:53:06;6.95;;;2.38;;
23555;SDS011;11956;53.184;8.578;2023-02-04T16:56:09;5.53;;;2.75;;
23555;SDS011;11956;53.184;8.578;2023-02-04T16:59:10;5.40;;;2.50;;
23555;SDS011;11956;53.184;8.578;2023-02-04T17:02:11;4.03;;;2.35;;
23555;SDS011;11956;53.184;8.578;2023-02-04T17:05:12;4.25;;;2.05;;
23555;SDS011;11956;53.184;8.578;2023-02-04T17:08:12;4.45;;;2.40;;
23555;SDS011;11956;53.184;8.578;2023-02-04T17:11:14;4.82;;;2.30;;
23555;SDS011;11956;53.184;8.578;2023-02-04T17:14:33;5.45;;;2.80;;
23555;SDS011;11956;53.184;8.578;2023-02-04T17:17:34;5.68;;;2.30;;
23555;SDS011;11956;53.184;8.578;2023-02-04T17:20:35;8.35;;;2.50;;
23555;SDS011;11956;53.184;8.578;2023-02-04T17:23:36;4.03;;;2.40;;
23555;SDS011;11956;53.184;8.578;2023-02-04T17:26:37;6.22;;;2.20;;
23555;SDS011;11956;53.184;8.578;2023-02-04T17:29:39;5.70;;;3.15;;
23555;SDS011;11956;53.184;8.578;2023-02-04T17:32:40;8.13;;;3.42;;
23555;SDS011;11956;53.184;8.578;2023-02-04T17:35:41;3.30;;;2.30;;
23555;SDS011;11956;53.184;8.578;2023-02-04T17:38:41;3.78;;;2.38;;
23555;SDS011;11956;53.184;8.578;2023-02-04T17:41:42;4.50;;;2.08;;
23555;SDS011;11956;53.184;8.578;2023-02-04T17:44:43;4.07;;;2.20;;
23555;SDS011;11956;53.184;8.578;2023-02-04T17:47:44;5.10;;;2.17;;
23555;SDS011;11956;53.184;8.578;2023-02-04T17:50:45;4.93;;;2.45;;
23555;SDS011;11956;53.184;8.578;2023-02-04T17:53:46;7.22;;;2.72;;
23555;SDS011;11956;53.184;8.578;2023-02-04T17:56:47;9.80;;;4.30;;
23555;SDS011;11956;53.184;8.578;2023-02-04T17:59:49;5.10;;;3.10;;
23555;SDS011;11956;53.184;8.578;2023-02-04T18:02:50;5.40;;;2.83;;
23555;SDS011;11956;53.184;8.578;2023-02-04T18:05:52;5.47;;;3.30;;
23555;SDS011;11956;53.184;8.578;2023-02-04T18:08:55;5.32;;;3.50;;
23555;SDS011;11956;53.184;8.578;2023-02-04T18:12:01;7.88;;;4.07;;
23555;SDS011;11956;53.184;8.578;2023-02-04T18:15:26;7.03;;;4.03;;
23555;SDS011;11956;53.184;8.578;2023-02-04T18:18:35;7.57;;;4.68;;
23555;SDS011;11956;53.184;8.578;2023-02-04T18:21:38;9.27;;;5.40;;
23555;SDS011;11956;53.184;8.578;2023-02-04T18:24:40;12.13;;;5.88;;
23555;SDS011;11956;53.184;8.578;2023-02-04T18:27:44;13.82;;;7.35;;
23555;SDS011;11956;53.184;8.578;2023-02-04T18:30:45;10.68;;;5.95;;
23555;SDS011;11956;53.184;8.578;2023-02-04T18:33:49;13.02;;;7.43;;